Terminal Aerodrome Forecast
Issued by NWS

Home | Current Version | Previous Version | Graphics & Text | Print | Product List | Glossary On
Versions: 1 2 3 4 5 6 7 8 9 10 11 12 13 14 15 16 17 18 19 20 21 22 23 24 25 26
000
FTUS45 KGGW 281903 AAA
TAFOLF
TAF AMD
KOLF 281903Z 2819/2918 28012KT 4SM FU HZ SCT040
     FM290300 VRB03KT 6SM FU HZ SCT250=

USA.gov is the U.S. government's official web portal to all federal, state and local government web resources and services.